sensor_id;sensor_type;location;lat;lon;timestamp;temperature;humidity
27922;DHT22;15261;50.356;10.340;2024-03-08T00:00:34;2.10;99.90
27922;DHT22;15261;50.356;10.340;2024-03-08T00:02:59;2.10;99.90
27922;DHT22;15261;50.356;10.340;2024-03-08T00:05:30;2.10;99.90
27922;DHT22;15261;50.356;10.340;2024-03-08T00:07:56;2.10;99.90
27922;DHT22;15261;50.356;10.340;2024-03-08T00:10:22;2.10;99.90
27922;DHT22;15261;50.356;10.340;2024-03-08T00:12:48;2.10;99.90
27922;DHT22;15261;50.356;10.340;2024-03-08T00:15:16;2.00;99.90
27922;DHT22;15261;50.356;10.340;2024-03-08T00:17:44;2.00;99.90
27922;DHT22;15261;50.356;10.340;2024-03-08T00:20:10;2.00;99.90
27922;DHT22;15261;50.356;10.340;2024-03-08T00:22:37;2.00;99.90
27922;DHT22;15261;50.356;10.340;2024-03-08T00:25:03;2.00;99.90
27922;DHT22;15261;50.356;10.340;2024-03-08T00:27:29;2.00;99.90
27922;DHT22;15261;50.356;10.340;2024-03-08T00:29:58;2.00;99.90
27922;DHT22;15261;50.356;10.340;2024-03-08T00:32:26;2.00;99.90
27922;DHT22;15261;50.356;10.340;2024-03-08T00:34:53;1.90;99.90
27922;DHT22;15261;50.356;10.340;2024-03-08T00:37:20;1.90;99.90
27922;DHT22;15261;50.356;10.340;2024-03-08T00:39:47;1.90;99.90
27922;DHT22;15261;50.356;10.340;2024-03-08T00:42:13;1.90;99.90
27922;DHT22;15261;50.356;10.340;2024-03-08T00:44:39;1.80;99.90
27922;DHT22;15261;50.356;10.340;2024-03-08T00:47:05;1.80;99.90
27922;DHT22;15261;50.356;10.340;2024-03-08T00:49:31;1.80;99.90
27922;DHT22;15261;50.356;10.340;2024-03-08T00:51:56;1.80;99.90
27922;DHT22;15261;50.356;10.340;2024-03-08T00:54:22;1.70;99.90
27922;DHT22;15261;50.356;10.340;2024-03-08T00:56:47;1.80;99.90
27922;DHT22;15261;50.356;10.340;2024-03-08T00:59:13;1.80;99.90
27922;DHT22;15261;50.356;10.340;2024-03-08T01:01:40;1.80;99.90
27922;DHT22;15261;50.356;10.340;2024-03-08T01:04:05;1.70;99.90
27922;DHT22;15261;50.356;10.340;2024-03-08T01:06:31;1.70;99.90
27922;DHT22;15261;50.356;10.340;2024-03-08T01:08:57;1.70;99.90
27922;DHT22;15261;50.356;10.340;2024-03-08T01:11:22;1.70;99.90
27922;DHT22;15261;50.356;10.340;2024-03-08T01:13:48;1.70;99.90
27922;DHT22;15261;50.356;10.340;2024-03-08T01:16:15;1.70;99.90
27922;DHT22;15261;50.356;10.340;2024-03-08T01:18:45;1.70;99.90
27922;DHT22;15261;50.356;10.340;2024-03-08T01:21:11;1.60;99.90
27922;DHT22;15261;50.356;10.340;2024-03-08T01:23:37;1.60;99.90
27922;DHT22;15261;50.356;10.340;2024-03-08T01:26:03;1.60;99.90
27922;DHT22;15261;50.356;10.340;2024-03-08T01:28:29;1.60;99.90
27922;DHT22;15261;50.356;10.340;2024-03-08T01:30:55;1.60;99.90
27922;DHT22;15261;50.356;10.340;2024-03-08T01:33:25;1.60;99.90
27922;DHT22;15261;50.356;10.340;2024-03-08T01:35:53;1.60;99.90
27922;DHT22;15261;50.356;10.340;2024-03-08T01:38:19;1.60;99.90
27922;DHT22;15261;50.356;10.340;2024-03-08T01:40:46;1.50;99.90
27922;DHT22;15261;50.356;10.340;2024-03-08T01:43:30;1.50;99.90
27922;DHT22;15261;50.356;10.340;2024-03-08T01:45:58;1.50;99.90
27922;DHT22;15261;50.356;10.340;2024-03-08T01:48:27;1.50;99.90
27922;DHT22;15261;50.356;10.340;2024-03-08T01:50:55;1.50;99.90
27922;DHT22;15261;50.356;10.340;2024-03-08T01:53:21;1.50;99.90
27922;DHT22;15261;50.356;10.340;2024-03-08T01:55:48;1.60;99.90
27922;DHT22;15261;50.356;10.340;2024-03-08T01:58:15;1.50;99.90
27922;DHT22;15261;50.356;10.340;2024-03-08T02:16:21;1.50;99.90
27922;DHT22;15261;50.356;10.340;2024-03-08T02:18:47;1.50;99.90
27922;DHT22;15261;50.356;10.340;2024-03-08T02:21:13;1.50;99.90
27922;DHT22;15261;50.356;10.340;2024-03-08T02:23:43;1.50;99.90
27922;DHT22;15261;50.356;10.340;2024-03-08T02:26:09;1.40;99.90
27922;DHT22;15261;50.356;10.340;2024-03-08T02:28:34;1.40;99.90
27922;DHT22;15261;50.356;10.340;2024-03-08T02:31:00;1.40;99.90
27922;DHT22;15261;50.356;10.340;2024-03-08T02:33:27;1.40;99.90
27922;DHT22;15261;50.356;10.340;2024-03-08T02:35:52;1.40;99.90
27922;DHT22;15261;50.356;10.340;2024-03-08T02:38:20;1.30;99.90
27922;DHT22;15261;50.356;10.340;2024-03-08T02:40:47;1.30;99.90
27922;DHT22;15261;50.356;10.340;2024-03-08T02:43:13;1.20;99.90
27922;DHT22;15261;50.356;10.340;2024-03-08T02:45:40;1.20;99.90
27922;DHT22;15261;50.356;10.340;2024-03-08T02:48:08;1.20;99.90
27922;DHT22;15261;50.356;10.340;2024-03-08T02:50:34;1.20;99.90
27922;DHT22;15261;50.356;10.340;2024-03-08T02:53:03;1.10;99.90
27922;DHT22;15261;50.356;10.340;2024-03-08T02:55:29;1.10;99.90
27922;DHT22;15261;50.356;10.340;2024-03-08T02:57:55;1.00;99.90
27922;DHT22;15261;50.356;10.340;2024-03-08T03:00:21;1.10;99.90
27922;DHT22;15261;50.356;10.340;2024-03-08T03:02:49;1.00;99.90
27922;DHT22;15261;50.356;10.340;2024-03-08T03:05:19;1.10;99.90
27922;DHT22;15261;50.356;10.340;2024-03-08T03:07:45;1.00;99.90
27922;DHT22;15261;50.356;10.340;2024-03-08T03:10:10;1.00;99.90
27922;DHT22;15261;50.356;10.340;2024-03-08T03:12:37;1.10;99.90
27922;DHT22;15261;50.356;10.340;2024-03-08T03:15:04;1.00;99.90
27922;DHT22;15261;50.356;10.340;2024-03-08T03:17:29;1.10;99.90
27922;DHT22;15261;50.356;10.340;2024-03-08T03:19:55;1.00;99.90
27922;DHT22;15261;50.356;10.340;2024-03-08T03:22:21;1.00;99.90
27922;DHT22;15261;50.356;10.340;2024-03-08T03:24:46;1.00;99.90
27922;DHT22;15261;50.356;10.340;2024-03-08T03:27:13;1.00;99.90
27922;DHT22;15261;50.356;10.340;2024-03-08T03:29:40;0.90;99.90
27922;DHT22;15261;50.356;10.340;2024-03-08T03:32:08;0.90;99.90
27922;DHT22;15261;50.356;10.340;2024-03-08T03:34:34;0.90;99.90
27922;DHT22;15261;50.356;10.340;2024-03-08T03:37:03;0.90;99.90
27922;DHT22;15261;50.356;10.340;2024-03-08T03:39:29;0.70;99.90
27922;DHT22;15261;50.356;10.340;2024-03-08T03:41:58;0.70;99.90
27922;DHT22;15261;50.356;10.340;2024-03-08T03:44:24;0.70;99.90
27922;DHT22;15261;50.356;10.340;2024-03-08T03:46:50;0.60;99.90
27922;DHT22;15261;50.356;10.340;2024-03-08T03:49:18;0.60;99.90
27922;DHT22;15261;50.356;10.340;2024-03-08T03:51:43;0.60;99.90
27922;DHT22;15261;50.356;10.340;2024-03-08T03:54:10;0.60;99.90
27922;DHT22;15261;50.356;10.340;2024-03-08T03:56:36;0.60;99.90
27922;DHT22;15261;50.356;10.340;2024-03-08T03:59:01;0.60;99.90
27922;DHT22;15261;50.356;10.340;2024-03-08T04:01:27;0.60;99.90
27922;DHT22;15261;50.356;10.340;2024-03-08T04:03:54;0.50;99.90
27922;DHT22;15261;50.356;10.340;2024-03-08T04:06:19;0.40;99.90
27922;DHT22;15261;50.356;10.340;2024-03-08T04:08:45;0.40;99.90
27922;DHT22;15261;50.356;10.340;2024-03-08T04:11:10;0.40;99.90
27922;DHT22;15261;50.356;10.340;2024-03-08T04:13:36;0.30;99.90
27922;DHT22;15261;50.356;10.340;2024-03-08T04:16:02;0.30;99.90
27922;DHT22;15261;50.356;10.340;2024-03-08T04:18:28;0.30;99.90
27922;DHT22;15261;50.356;10.340;2024-03-08T04:20:53;0.30;99.90
27922;DHT22;15261;50.356;10.340;2024-03-08T04:23:19;0.30;99.90
27922;DHT22;15261;50.356;10.340;2024-03-08T04:25:45;0.30;99.90
27922;DHT22;15261;50.356;10.340;2024-03-08T04:28:10;0.30;99.90
27922;DHT22;15261;50.356;10.340;2024-03-08T04:30:40;0.20;99.90
27922;DHT22;15261;50.356;10.340;2024-03-08T04:33:06;0.20;99.90
27922;DHT22;15261;50.356;10.340;2024-03-08T04:35:34;0.10;99.90
27922;DHT22;15261;50.356;10.340;2024-03-08T04:37:59;0.10;99.90
27922;DHT22;15261;50.356;10.340;2024-03-08T04:40:25;0.10;99.90
27922;DHT22;15261;50.356;10.340;2024-03-08T04:42:51;0.10;99.90
27922;DHT22;15261;50.356;10.340;2024-03-08T04:45:17;0.00;99.90
27922;DHT22;15261;50.356;10.340;2024-03-08T04:47:43;-0.10;99.90
27922;DHT22;15261;50.356;10.340;2024-03-08T04:50:09;-0.10;99.90
27922;DHT22;15261;50.356;10.340;2024-03-08T04:52:35;0.00;99.90
27922;DHT22;15261;50.356;10.340;2024-03-08T04:55:03;0.00;99.90
27922;DHT22;15261;50.356;10.340;2024-03-08T04:57:30;0.00;99.90
27922;DHT22;15261;50.356;10.340;2024-03-08T04:59:56;0.00;99.90
27922;DHT22;15261;50.356;10.340;2024-03-08T05:02:24;-0.10;99.90
27922;DHT22;15261;50.356;10.340;2024-03-08T05:04:50;-0.10;99.90
27922;DHT22;15261;50.356;10.340;2024-03-08T05:07:16;-0.10;99.90
27922;DHT22;15261;50.356;10.340;2024-03-08T05:09:41;-0.10;99.90
27922;DHT22;15261;50.356;10.340;2024-03-08T05:12:07;-0.10;99.90
27922;DHT22;15261;50.356;10.340;2024-03-08T05:14:33;-0.20;99.90
27922;DHT22;15261;50.356;10.340;2024-03-08T05:17:00;-0.20;99.90
27922;DHT22;15261;50.356;10.340;2024-03-08T05:19:26;-0.30;99.90
27922;DHT22;15261;50.356;10.340;2024-03-08T05:21:52;-0.20;99.90
27922;DHT22;15261;50.356;10.340;2024-03-08T05:24:18;-0.20;99.90
27922;DHT22;15261;50.356;10.340;2024-03-08T05:26:47;-0.20;99.90
27922;DHT22;15261;50.356;10.340;2024-03-08T05:29:13;-0.30;99.90
27922;DHT22;15261;50.356;10.340;2024-03-08T05:31:49;-0.30;99.90
27922;DHT22;15261;50.356;10.340;2024-03-08T05:34:16;-0.20;99.90
27922;DHT22;15261;50.356;10.340;2024-03-08T05:36:42;-0.20;99.90
27922;DHT22;15261;50.356;10.340;2024-03-08T05:39:15;-0.20;99.90
27922;DHT22;15261;50.356;10.340;2024-03-08T05:41:41;-0.20;99.90
27922;DHT22;15261;50.356;10.340;2024-03-08T05:44:07;-0.20;99.90
27922;DHT22;15261;50.356;10.340;2024-03-08T05:46:33;-0.20;99.90
27922;DHT22;15261;50.356;10.340;2024-03-08T05:48:59;-0.20;99.90
27922;DHT22;15261;50.356;10.340;2024-03-08T05:51:25;0.00;99.90
27922;DHT22;15261;50.356;10.340;2024-03-08T05:53:54;0.00;99.90
27922;DHT22;15261;50.356;10.340;2024-03-08T05:56:22;0.00;99.90
27922;DHT22;15261;50.356;10.340;2024-03-08T05:58:50;0.00;99.90
27922;DHT22;15261;50.356;10.340;2024-03-08T06:01:16;0.10;99.90
27922;DHT22;15261;50.356;10.340;2024-03-08T06:03:41;0.00;99.90
27922;DHT22;15261;50.356;10.340;2024-03-08T06:06:14;0.00;99.90
27922;DHT22;15261;50.356;10.340;2024-03-08T06:08:40;-0.10;99.90
27922;DHT22;15261;50.356;10.340;2024-03-08T06:11:08;-0.10;99.90
27922;DHT22;15261;50.356;10.340;2024-03-08T06:13:34;-0.20;99.90
27922;DHT22;15261;50.356;10.340;2024-03-08T06:16:01;-0.10;99.90
27922;DHT22;15261;50.356;10.340;2024-03-08T06:18:30;-0.10;99.90
27922;DHT22;15261;50.356;10.340;2024-03-08T06:20:55;-0.10;99.90
27922;DHT22;15261;50.356;10.340;2024-03-08T06:23:21;-0.10;99.90
27922;DHT22;15261;50.356;10.340;2024-03-08T06:25:47;-0.10;99.90
27922;DHT22;15261;50.356;10.340;2024-03-08T06:28:13;-0.10;99.90
27922;DHT22;15261;50.356;10.340;2024-03-08T06:30:40;-0.10;99.90
27922;DHT22;15261;50.356;10.340;2024-03-08T06:33:05;0.00;99.90
27922;DHT22;15261;50.356;10.340;2024-03-08T06:35:31;0.10;99.90
27922;DHT22;15261;50.356;10.340;2024-03-08T06:37:58;0.20;99.90
27922;DHT22;15261;50.356;10.340;2024-03-08T06:40:23;0.40;99.90
27922;DHT22;15261;50.356;10.340;2024-03-08T06:42:49;0.60;99.90
27922;DHT22;15261;50.356;10.340;2024-03-08T06:45:17;0.70;99.90
27922;DHT22;15261;50.356;10.340;2024-03-08T06:47:46;0.80;99.90
27922;DHT22;15261;50.356;10.340;2024-03-08T06:50:12;0.90;99.90
27922;DHT22;15261;50.356;10.340;2024-03-08T06:52:38;1.00;99.90
27922;DHT22;15261;50.356;10.340;2024-03-08T06:55:04;1.10;99.90
27922;DHT22;15261;50.356;10.340;2024-03-08T06:57:31;1.20;99.90
27922;DHT22;15261;50.356;10.340;2024-03-08T06:59:57;1.30;99.90
27922;DHT22;15261;50.356;10.340;2024-03-08T07:02:23;1.40;99.90
27922;DHT22;15261;50.356;10.340;2024-03-08T07:04:50;1.50;99.90
27922;DHT22;15261;50.356;10.340;2024-03-08T07:07:16;1.60;99.90
27922;DHT22;15261;50.356;10.340;2024-03-08T07:09:46;1.60;99.90
27922;DHT22;15261;50.356;10.340;2024-03-08T07:12:12;1.70;99.90
27922;DHT22;15261;50.356;10.340;2024-03-08T07:15:02;1.80;99.90
27922;DHT22;15261;50.356;10.340;2024-03-08T07:17:28;1.90;99.90
27922;DHT22;15261;50.356;10.340;2024-03-08T07:19:53;2.00;99.90
27922;DHT22;15261;50.356;10.340;2024-03-08T07:22:19;2.10;99.90
27922;DHT22;15261;50.356;10.340;2024-03-08T07:24:45;2.10;99.90
27922;DHT22;15261;50.356;10.340;2024-03-08T07:27:29;2.20;99.90
27922;DHT22;15261;50.356;10.340;2024-03-08T07:29:54;2.20;99.90
27922;DHT22;15261;50.356;10.340;2024-03-08T07:32:21;2.40;99.90
27922;DHT22;15261;50.356;10.340;2024-03-08T07:34:47;2.40;99.90
27922;DHT22;15261;50.356;10.340;2024-03-08T07:37:14;2.50;99.90
27922;DHT22;15261;50.356;10.340;2024-03-08T07:39:40;2.60;99.90
27922;DHT22;15261;50.356;10.340;2024-03-08T07:42:05;2.60;99.90
27922;DHT22;15261;50.356;10.340;2024-03-08T07:44:31;2.70;99.90
27922;DHT22;15261;50.356;10.340;2024-03-08T07:46:58;2.70;99.90
27922;DHT22;15261;50.356;10.340;2024-03-08T07:49:24;2.70;99.90
27922;DHT22;15261;50.356;10.340;2024-03-08T07:51:50;2.90;99.90
27922;DHT22;15261;50.356;10.340;2024-03-08T07:54:15;2.90;99.90
27922;DHT22;15261;50.356;10.340;2024-03-08T07:56:44;3.10;99.90
27922;DHT22;15261;50.356;10.340;2024-03-08T07:59:10;3.30;99.90
27922;DHT22;15261;50.356;10.340;2024-03-08T08:01:37;3.30;99.90
27922;DHT22;15261;50.356;10.340;2024-03-08T08:04:03;3.30;99.90
27922;DHT22;15261;50.356;10.340;2024-03-08T08:06:29;3.40;99.90
27922;DHT22;15261;50.356;10.340;2024-03-08T08:08:58;3.40;99.90
27922;DHT22;15261;50.356;10.340;2024-03-08T08:11:26;3.50;99.90
27922;DHT22;15261;50.356;10.340;2024-03-08T08:13:53;3.60;99.90
27922;DHT22;15261;50.356;10.340;2024-03-08T08:16:22;3.50;99.90
27922;DHT22;15261;50.356;10.340;2024-03-08T08:18:48;3.60;99.90
27922;DHT22;15261;50.356;10.340;2024-03-08T08:21:14;3.70;99.90
27922;DHT22;15261;50.356;10.340;2024-03-08T08:23:39;3.90;99.90
27922;DHT22;15261;50.356;10.340;2024-03-08T08:26:05;4.10;99.90
27922;DHT22;15261;50.356;10.340;2024-03-08T08:28:33;4.10;99.90
27922;DHT22;15261;50.356;10.340;2024-03-08T08:30:58;4.30;99.90
27922;DHT22;15261;50.356;10.340;2024-03-08T08:33:25;4.20;99.90
27922;DHT22;15261;50.356;10.340;2024-03-08T08:35:51;4.30;99.90
27922;DHT22;15261;50.356;10.340;2024-03-08T08:38:19;4.30;99.90
27922;DHT22;15261;50.356;10.340;2024-03-08T08:40:45;4.50;99.90
27922;DHT22;15261;50.356;10.340;2024-03-08T08:43:13;4.60;99.90
27922;DHT22;15261;50.356;10.340;2024-03-08T08:45:39;4.60;99.90
27922;DHT22;15261;50.356;10.340;2024-03-08T08:48:06;4.80;99.90
27922;DHT22;15261;50.356;10.340;2024-03-08T08:50:31;4.90;99.90
27922;DHT22;15261;50.356;10.340;2024-03-08T08:52:58;4.80;99.70
27922;DHT22;15261;50.356;10.340;2024-03-08T08:55:23;4.80;99.70
27922;DHT22;15261;50.356;10.340;2024-03-08T08:57:52;4.80;99.50
27922;DHT22;15261;50.356;10.340;2024-03-08T09:00:21;4.80;98.90
27922;DHT22;15261;50.356;10.340;2024-03-08T09:02:47;4.80;99.00
27922;DHT22;15261;50.356;10.340;2024-03-08T09:05:16;4.80;99.30
27922;DHT22;15261;50.356;10.340;2024-03-08T09:07:44;4.90;98.90
27922;DHT22;15261;50.356;10.340;2024-03-08T09:10:10;4.90;99.10
27922;DHT22;15261;50.356;10.340;2024-03-08T09:12:38;5.00;99.10
27922;DHT22;15261;50.356;10.340;2024-03-08T09:15:32;5.20;98.90
27922;DHT22;15261;50.356;10.340;2024-03-08T09:17:58;5.20;98.30
27922;DHT22;15261;50.356;10.340;2024-03-08T09:20:47;5.00;98.50
27922;DHT22;15261;50.356;10.340;2024-03-08T09:23:13;5.20;98.80
27922;DHT22;15261;50.356;10.340;2024-03-08T09:25:38;5.40;98.60
27922;DHT22;15261;50.356;10.340;2024-03-08T09:28:04;5.50;98.00
27922;DHT22;15261;50.356;10.340;2024-03-08T09:30:31;5.60;97.90
27922;DHT22;15261;50.356;10.340;2024-03-08T09:32:56;5.50;97.80
27922;DHT22;15261;50.356;10.340;2024-03-08T09:35:22;5.60;97.30
27922;DHT22;15261;50.356;10.340;2024-03-08T09:37:47;5.70;97.90
27922;DHT22;15261;50.356;10.340;2024-03-08T09:40:16;5.80;97.70
27922;DHT22;15261;50.356;10.340;2024-03-08T09:42:47;6.00;97.90
27922;DHT22;15261;50.356;10.340;2024-03-08T09:45:13;6.10;97.30
27922;DHT22;15261;50.356;10.340;2024-03-08T09:47:45;6.00;96.50
27922;DHT22;15261;50.356;10.340;2024-03-08T09:50:11;6.10;97.10
27922;DHT22;15261;50.356;10.340;2024-03-08T09:52:40;6.00;97.10
27922;DHT22;15261;50.356;10.340;2024-03-08T09:55:06;6.10;96.50
27922;DHT22;15261;50.356;10.340;2024-03-08T09:57:36;6.30;96.80
27922;DHT22;15261;50.356;10.340;2024-03-08T10:00:03;6.40;96.90
27922;DHT22;15261;50.356;10.340;2024-03-08T10:03:05;6.50;96.40
27922;DHT22;15261;50.356;10.340;2024-03-08T10:05:31;6.50;96.20
27922;DHT22;15261;50.356;10.340;2024-03-08T10:08:00;6.50;96.20
27922;DHT22;15261;50.356;10.340;2024-03-08T10:10:25;6.50;96.20
27922;DHT22;15261;50.356;10.340;2024-03-08T10:12:52;6.40;95.70
27922;DHT22;15261;50.356;10.340;2024-03-08T10:15:17;6.40;96.10
27922;DHT22;15261;50.356;10.340;2024-03-08T10:17:43;6.50;96.40
27922;DHT22;15261;50.356;10.340;2024-03-08T10:20:17;6.50;96.30
27922;DHT22;15261;50.356;10.340;2024-03-08T10:22:43;6.60;95.90
27922;DHT22;15261;50.356;10.340;2024-03-08T10:25:12;6.70;96.10
27922;DHT22;15261;50.356;10.340;2024-03-08T10:27:39;6.70;95.90
27922;DHT22;15261;50.356;10.340;2024-03-08T10:33:27;7.00;96.50
27922;DHT22;15261;50.356;10.340;2024-03-08T10:35:53;7.10;95.30
27922;DHT22;15261;50.356;10.340;2024-03-08T10:38:38;7.10;95.20
27922;DHT22;15261;50.356;10.340;2024-03-08T10:41:09;7.20;95.60
27922;DHT22;15261;50.356;10.340;2024-03-08T10:50:01;7.50;95.50
27922;DHT22;15261;50.356;10.340;2024-03-08T10:52:31;7.50;95.30
27922;DHT22;15261;50.356;10.340;2024-03-08T10:54:57;7.50;94.90
27922;DHT22;15261;50.356;10.340;2024-03-08T10:57:25;7.40;95.00
27922;DHT22;15261;50.356;10.340;2024-03-08T10:59:52;7.50;94.90
27922;DHT22;15261;50.356;10.340;2024-03-08T11:02:19;7.60;95.10
27922;DHT22;15261;50.356;10.340;2024-03-08T11:04:50;7.70;94.90
27922;DHT22;15261;50.356;10.340;2024-03-08T11:07:16;7.70;94.10
27922;DHT22;15261;50.356;10.340;2024-03-08T11:09:47;7.60;93.70
27922;DHT22;15261;50.356;10.340;2024-03-08T11:14:52;7.70;94.50
27922;DHT22;15261;50.356;10.340;2024-03-08T11:17:26;7.70;94.10
27922;DHT22;15261;50.356;10.340;2024-03-08T11:19:55;7.70;94.10
27922;DHT22;15261;50.356;10.340;2024-03-08T11:22:32;7.60;94.10
27922;DHT22;15261;50.356;10.340;2024-03-08T11:25:05;7.60;94.20
27922;DHT22;15261;50.356;10.340;2024-03-08T11:27:35;7.80;94.40
27922;DHT22;15261;50.356;10.340;2024-03-08T11:30:08;7.90;94.10
27922;DHT22;15261;50.356;10.340;2024-03-08T11:32:38;8.10;94.00
27922;DHT22;15261;50.356;10.340;2024-03-08T11:35:19;8.10;94.10
27922;DHT22;15261;50.356;10.340;2024-03-08T11:37:45;8.20;94.00
27922;DHT22;15261;50.356;10.340;2024-03-08T11:40:14;8.20;93.80
27922;DHT22;15261;50.356;10.340;2024-03-08T11:42:45;8.20;93.70
27922;DHT22;15261;50.356;10.340;2024-03-08T11:45:15;8.20;93.40
27922;DHT22;15261;50.356;10.340;2024-03-08T11:47:43;8.10;93.20
27922;DHT22;15261;50.356;10.340;2024-03-08T11:50:12;8.00;93.20
27922;DHT22;15261;50.356;10.340;2024-03-08T11:52:38;8.00;93.60
27922;DHT22;15261;50.356;10.340;2024-03-08T11:55:05;8.10;93.80
27922;DHT22;15261;50.356;10.340;2024-03-08T11:57:31;8.10;93.70
27922;DHT22;15261;50.356;10.340;2024-03-08T11:59:58;8.30;93.70
27922;DHT22;15261;50.356;10.340;2024-03-08T12:02:31;8.40;93.10
27922;DHT22;15261;50.356;10.340;2024-03-08T12:04:58;8.30;93.40
27922;DHT22;15261;50.356;10.340;2024-03-08T12:07:25;8.10;92.90
27922;DHT22;15261;50.356;10.340;2024-03-08T12:10:15;8.10;93.00
27922;DHT22;15261;50.356;10.340;2024-03-08T12:12:51;8.30;93.20
27922;DHT22;15261;50.356;10.340;2024-03-08T12:15:22;8.40;93.40
27922;DHT22;15261;50.356;10.340;2024-03-08T12:17:51;8.50;93.00
27922;DHT22;15261;50.356;10.340;2024-03-08T12:20:23;8.50;93.20
27922;DHT22;15261;50.356;10.340;2024-03-08T12:22:49;8.50;93.10
27922;DHT22;15261;50.356;10.340;2024-03-08T12:25:18;8.50;92.60
27922;DHT22;15261;50.356;10.340;2024-03-08T12:27:44;8.50;92.50
27922;DHT22;15261;50.356;10.340;2024-03-08T12:33:02;8.70;93.00
27922;DHT22;15261;50.356;10.340;2024-03-08T12:35:29;8.60;92.50
27922;DHT22;15261;50.356;10.340;2024-03-08T12:37:56;8.50;92.50
27922;DHT22;15261;50.356;10.340;2024-03-08T12:40:26;8.70;93.00
27922;DHT22;15261;50.356;10.340;2024-03-08T12:42:57;8.80;92.40
27922;DHT22;15261;50.356;10.340;2024-03-08T12:45:23;8.80;92.40
27922;DHT22;15261;50.356;10.340;2024-03-08T12:47:55;8.90;92.60
27922;DHT22;15261;50.356;10.340;2024-03-08T12:50:22;8.90;91.80
27922;DHT22;15261;50.356;10.340;2024-03-08T12:52:48;9.00;92.10
27922;DHT22;15261;50.356;10.340;2024-03-08T12:55:15;9.00;92.10
27922;DHT22;15261;50.356;10.340;2024-03-08T12:57:42;9.00;92.30
27922;DHT22;15261;50.356;10.340;2024-03-08T13:00:09;9.10;92.70
27922;DHT22;15261;50.356;10.340;2024-03-08T13:02:48;9.10;92.50
27922;DHT22;15261;50.356;10.340;2024-03-08T13:05:16;9.00;92.00
27922;DHT22;15261;50.356;10.340;2024-03-08T13:07:42;9.00;91.80
27922;DHT22;15261;50.356;10.340;2024-03-08T13:10:15;9.00;91.70
27922;DHT22;15261;50.356;10.340;2024-03-08T13:12:42;9.00;92.20
27922;DHT22;15261;50.356;10.340;2024-03-08T13:15:08;9.10;92.10
27922;DHT22;15261;50.356;10.340;2024-03-08T13:17:37;9.10;91.90
27922;DHT22;15261;50.356;10.340;2024-03-08T13:20:08;9.10;91.70
27922;DHT22;15261;50.356;10.340;2024-03-08T13:22:35;9.10;91.00
27922;DHT22;15261;50.356;10.340;2024-03-08T13:25:01;9.10;90.90
27922;DHT22;15261;50.356;10.340;2024-03-08T13:27:28;9.10;91.10
27922;DHT22;15261;50.356;10.340;2024-03-08T13:29:54;9.10;91.60
27922;DHT22;15261;50.356;10.340;2024-03-08T13:32:19;9.20;91.40
27922;DHT22;15261;50.356;10.340;2024-03-08T13:34:49;9.20;90.60
27922;DHT22;15261;50.356;10.340;2024-03-08T13:37:16;9.10;90.70
27922;DHT22;15261;50.356;10.340;2024-03-08T13:39:42;9.10;91.30
27922;DHT22;15261;50.356;10.340;2024-03-08T13:42:14;9.20;91.50
27922;DHT22;15261;50.356;10.340;2024-03-08T13:44:48;9.20;90.90
27922;DHT22;15261;50.356;10.340;2024-03-08T13:47:17;9.20;91.00
27922;DHT22;15261;50.356;10.340;2024-03-08T13:49:46;9.20;90.60
27922;DHT22;15261;50.356;10.340;2024-03-08T13:52:11;9.10;90.90
27922;DHT22;15261;50.356;10.340;2024-03-08T13:54:42;9.20;90.70
27922;DHT22;15261;50.356;10.340;2024-03-08T13:57:08;9.20;90.90
27922;DHT22;15261;50.356;10.340;2024-03-08T13:59:34;9.20;91.30
27922;DHT22;15261;50.356;10.340;2024-03-08T14:02:01;9.30;91.50
27922;DHT22;15261;50.356;10.340;2024-03-08T14:04:30;9.40;91.00
27922;DHT22;15261;50.356;10.340;2024-03-08T14:06:56;9.40;90.80
27922;DHT22;15261;50.356;10.340;2024-03-08T14:09:25;9.40;89.70
27922;DHT22;15261;50.356;10.340;2024-03-08T14:11:55;9.30;90.20
27922;DHT22;15261;50.356;10.340;2024-03-08T14:14:21;9.40;90.20
27922;DHT22;15261;50.356;10.340;2024-03-08T14:16:49;9.40;88.90
27922;DHT22;15261;50.356;10.340;2024-03-08T14:19:19;9.40;88.70
27922;DHT22;15261;50.356;10.340;2024-03-08T14:21:45;9.30;89.60
27922;DHT22;15261;50.356;10.340;2024-03-08T14:24:10;9.30;88.90
27922;DHT22;15261;50.356;10.340;2024-03-08T14:26:36;9.30;89.20
27922;DHT22;15261;50.356;10.340;2024-03-08T14:29:05;9.30;89.30
27922;DHT22;15261;50.356;10.340;2024-03-08T14:31:32;9.30;88.90
27922;DHT22;15261;50.356;10.340;2024-03-08T14:33:57;9.40;87.60
27922;DHT22;15261;50.356;10.340;2024-03-08T14:36:24;9.40;88.60
27922;DHT22;15261;50.356;10.340;2024-03-08T14:38:51;9.40;89.70
27922;DHT22;15261;50.356;10.340;2024-03-08T14:41:18;9.40;88.20
27922;DHT22;15261;50.356;10.340;2024-03-08T14:43:43;9.40;89.30
27922;DHT22;15261;50.356;10.340;2024-03-08T14:46:13;9.40;89.50
27922;DHT22;15261;50.356;10.340;2024-03-08T14:48:48;9.40;88.60
27922;DHT22;15261;50.356;10.340;2024-03-08T14:51:13;9.40;89.70
27922;DHT22;15261;50.356;10.340;2024-03-08T14:53:42;9.40;87.90
27922;DHT22;15261;50.356;10.340;2024-03-08T14:56:13;9.30;88.10
27922;DHT22;15261;50.356;10.340;2024-03-08T14:58:45;9.40;86.40
27922;DHT22;15261;50.356;10.340;2024-03-08T15:01:12;9.40;87.70
27922;DHT22;15261;50.356;10.340;2024-03-08T15:03:41;9.40;86.50
27922;DHT22;15261;50.356;10.340;2024-03-08T15:06:10;9.40;87.30
27922;DHT22;15261;50.356;10.340;2024-03-08T15:08:40;9.40;86.60
27922;DHT22;15261;50.356;10.340;2024-03-08T15:11:06;9.30;86.00
27922;DHT22;15261;50.356;10.340;2024-03-08T15:13:32;9.30;86.80
27922;DHT22;15261;50.356;10.340;2024-03-08T15:16:07;9.30;86.90
27922;DHT22;15261;50.356;10.340;2024-03-08T15:18:34;9.30;86.30
27922;DHT22;15261;50.356;10.340;2024-03-08T15:21:04;9.20;86.80
27922;DHT22;15261;50.356;10.340;2024-03-08T15:23:36;9.20;86.50
27922;DHT22;15261;50.356;10.340;2024-03-08T15:26:04;9.20;86.80
27922;DHT22;15261;50.356;10.340;2024-03-08T15:28:33;9.10;86.70
27922;DHT22;15261;50.356;10.340;2024-03-08T15:31:06;9.20;86.80
27922;DHT22;15261;50.356;10.340;2024-03-08T15:33:36;9.10;87.50
27922;DHT22;15261;50.356;10.340;2024-03-08T15:36:14;9.20;88.50
27922;DHT22;15261;50.356;10.340;2024-03-08T15:38:42;9.10;89.20
27922;DHT22;15261;50.356;10.340;2024-03-08T15:41:15;9.10;89.60
27922;DHT22;15261;50.356;10.340;2024-03-08T15:43:43;9.10;87.70
27922;DHT22;15261;50.356;10.340;2024-03-08T15:46:09;9.10;87.80
27922;DHT22;15261;50.356;10.340;2024-03-08T15:48:36;9.00;88.50
27922;DHT22;15261;50.356;10.340;2024-03-08T15:51:03;9.00;89.50
27922;DHT22;15261;50.356;10.340;2024-03-08T15:53:33;9.00;90.10
27922;DHT22;15261;50.356;10.340;2024-03-08T15:56:01;8.90;90.30
27922;DHT22;15261;50.356;10.340;2024-03-08T15:58:28;8.90;90.10
27922;DHT22;15261;50.356;10.340;2024-03-08T16:00:56;8.90;90.30
27922;DHT22;15261;50.356;10.340;2024-03-08T16:03:22;8.90;90.50